KMPV/MPV METAR and TAF weather

Enter ICAO airport designator
Station Type Date Time Source
KMPV METAR 2020/07/10 20:51 UTC NOAA

KMPV 102051Z AUTO 15011G19KT 10SM CLR 29/19 A2999 RMK AO2 SLP148 T02940189 56012


Station Type Date Time Source
KMPV Decoded METAR 2020/07/10 20:51 UTC NOAA

KNAPP STATE AIRPORT, VT, United States (KMPV) 44-12N 072-34W 343M
Jul 10, 2020 - 04:51 PM EDT / 2020.07.10 2051 UTC
Wind: from the SSE (150 degrees) at 13 MPH (11 KT) gusting to 22 MPH (19 KT):0
Visibility: 10 mile(s):0
Sky conditions: clear
Temperature: 84.9 F (29.4 C)
Dew Point: 66.0 F (18.9 C)
Relative Humidity: 53%
Pressure (altimeter): 29.99 in. Hg (1015 hPa)
Pressure tendency: 0.04 inches (1.2 hPa) lower than three hours ago
ob: KMPV 102051Z AUTO 15011G19KT 10SM CLR 29/19 A2999 RMK AO2 SLP148 T02940189 56012
cycle: 21

Station Type Date Time Source
KMPV TAF 2020/07/10 18:24 UTC NOAA

TAF KMPV 101721Z 1018/1118 16007G15KT P6SM SCT150
FM110300 15008KT P6SM VCSH BKN035
FM110600 13008G16KT 5SM SHRA BR OVC015 WS020/13040KT
FM111000 VRB06KT 5SM SHRA BR OVC007
FM111500 18009KT P6SM VCSH BKN015

Example: see airport list